Time;durP1;ratioP1;P1;durP2;ratioP2;P2;SDS_P1;SDS_P2;PMS_P1;PMS_P2;Temp;Humidity;BMP_temperature;BMP_pressure;BME280_temperature;BME280_humidity;BME280_pressure;Samples;Min_cycle;Max_cycle;Signal;HPM_P1;HPM_P2
2022/06/27 00:00:17;;;;;;;2.07;1.90;;;23.80;85.20;;;;;;6183456;23;20412;-75
2022/06/27 00:02:46;;;;;;;2.10;2.00;;;23.80;85.30;;;;;;6183722;23;20906;-73
2022/06/27 00:05:12;;;;;;;2.40;2.20;;;23.80;85.30;;;;;;6183701;23;20428;-73
2022/06/27 00:07:40;;;;;;;2.20;1.93;;;23.80;85.30;;;;;;6184967;23;20738;-73
2022/06/27 00:10:08;;;;;;;2.33;2.13;;;23.70;85.20;;;;;;6158556;23;20428;-73
2022/06/27 00:12:35;;;;;;;3.17;2.27;;;23.80;85.30;;;;;;6183620;23;20391;-73
2022/06/27 00:15:02;;;;;;;2.50;1.80;;;23.70;85.30;;;;;;6183594;23;20707;-73
2022/06/27 00:17:30;;;;;;;2.60;2.20;;;23.70;85.30;;;;;;6183080;23;20406;-73
2022/06/27 00:19:58;;;;;;;2.40;2.20;;;23.70;85.30;;;;;;6182887;23;20428;-73
2022/06/27 00:22:32;;;;;;;2.13;1.93;;;23.70;85.40;;;;;;6135153;23;20408;-73
2022/06/27 00:25:00;;;;;;;2.60;2.40;;;23.70;85.50;;;;;;6183802;23;20364;-73
2022/06/27 00:27:29;;;;;;;2.60;2.40;;;23.70;85.50;;;;;;6183227;23;20380;-73
2022/06/27 00:29:55;;;;;;;2.40;2.20;;;23.70;85.60;;;;;;6135071;23;20385;-73
2022/06/27 00:32:23;;;;;;;2.20;2.00;;;23.70;85.70;;;;;;6136048;23;20446;-73
2022/06/27 00:34:50;;;;;;;2.57;2.03;;;23.70;85.70;;;;;;6187046;23;20414;-73
2022/06/27 00:37:16;;;;;;;2.30;2.10;;;23.70;85.60;;;;;;6185424;23;20475;-73
2022/06/27 00:39:44;;;;;;;2.43;2.23;;;23.70;85.70;;;;;;6160718;23;20515;-73
2022/06/27 00:42:13;;;;;;;3.27;2.40;;;23.60;85.60;;;;;;6187553;23;20368;-73
2022/06/27 00:44:43;;;;;;;2.27;2.10;;;23.70;85.70;;;;;;6136082;23;20392;-73
2022/06/27 00:47:13;;;;;;;2.63;2.03;;;23.60;85.70;;;;;;6185125;23;20871;-73
2022/06/27 00:49:39;;;;;;;2.40;2.13;;;23.70;85.90;;;;;;6185511;23;20368;-73
2022/06/27 00:52:10;;;;;;;2.27;2.07;;;23.60;85.80;;;;;;6136238;23;20399;-73
2022/06/27 00:54:41;;;;;;;2.17;2.03;;;23.60;85.80;;;;;;6185352;23;20451;-73
2022/06/27 00:57:13;;;;;;;2.60;2.10;;;23.60;85.80;;;;;;6186674;23;20388;-73
2022/06/27 00:59:42;;;;;;;2.40;2.20;;;23.60;85.90;;;;;;6135743;23;20424;-73
2022/06/27 01:02:10;;;;;;;2.20;2.00;;;23.60;85.90;;;;;;6185388;23;20360;-73
2022/06/27 01:04:37;;;;;;;2.17;1.97;;;23.60;86.00;;;;;;6185355;23;20467;-73
2022/06/27 01:07:06;;;;;;;2.57;2.37;;;23.60;86.10;;;;;;6185426;23;20399;-73
2022/06/27 01:09:33;;;;;;;2.43;2.23;;;23.60;86.10;;;;;;6185146;23;20407;-73
2022/06/27 01:11:59;;;;;;;2.40;2.20;;;23.50;86.00;;;;;;6209926;23;20419;-73
2022/06/27 01:14:30;;;;;;;2.77;2.17;;;23.50;86.00;;;;;;6160933;23;20862;-73
2022/06/27 01:16:58;;;;;;;2.37;2.17;;;23.60;86.20;;;;;;6160458;23;20413;-73
2022/06/27 01:19:24;;;;;;;2.03;1.93;;;23.60;86.30;;;;;;6160388;23;20903;-73
2022/06/27 01:21:53;;;;;;;2.80;2.20;;;23.50;86.20;;;;;;6135829;23;20794;-73
2022/06/27 01:24:26;;;;;;;2.77;2.10;;;23.60;86.30;;;;;;6160983;23;20435;-73
2022/06/27 01:26:54;;;;;;;2.00;1.90;;;23.50;86.30;;;;;;6184978;23;20860;-73
2022/06/27 01:29:23;;;;;;;3.00;2.47;;;23.50;86.30;;;;;;6160435;23;20404;-73
2022/06/27 01:31:50;;;;;;;2.13;1.97;;;23.50;86.40;;;;;;6159966;23;20418;-73
2022/06/27 01:34:17;;;;;;;2.83;2.57;;;23.50;86.40;;;;;;6160428;23;20387;-73
2022/06/27 01:36:46;;;;;;;2.40;2.20;;;23.50;86.40;;;;;;6160312;23;20867;-73
2022/06/27 01:39:20;;;;;;;3.20;2.87;;;23.40;86.30;;;;;;6160645;23;20396;-73
2022/06/27 01:41:54;;;;;;;2.03;1.83;;;23.50;86.50;;;;;;6185170;23;20365;-73
2022/06/27 01:44:27;;;;;;;2.47;2.27;;;23.40;86.30;;;;;;6160267;23;20412;-73
2022/06/27 01:46:59;;;;;;;3.07;2.63;;;23.50;86.50;;;;;;6184829;23;20426;-73
2022/06/27 01:49:30;;;;;;;3.20;2.30;;;23.50;86.50;;;;;;6135819;23;20457;-73
2022/06/27 01:52:01;;;;;;;3.00;2.40;;;23.40;87.20;;;;;;6160557;23;20703;-73
2022/06/27 01:54:30;;;;;;;2.30;2.10;;;23.40;86.40;;;;;;6185101;23;20369;-73
2022/06/27 01:56:57;;;;;;;2.40;2.20;;;23.40;86.40;;;;;;6184815;23;20407;-73
2022/06/27 01:59:29;;;;;;;2.20;2.00;;;23.40;86.50;;;;;;6160052;23;20495;-73
2022/06/27 02:01:59;;;;;;;2.93;2.40;;;23.40;87.20;;;;;;6160617;23;21068;-73
2022/06/27 02:04:28;;;;;;;2.40;2.20;;;23.40;86.50;;;;;;6160039;23;20384;-73
2022/06/27 02:06:57;;;;;;;2.60;2.40;;;23.40;86.60;;;;;;6186376;23;20361;-73
2022/06/27 02:09:26;;;;;;;3.13;2.30;;;23.40;86.50;;;;;;6160253;23;20395;-73
2022/06/27 02:11:55;;;;;;;2.37;2.07;;;23.40;86.50;;;;;;6160045;23;20467;-73
2022/06/27 02:14:24;;;;;;;4.27;2.90;;;23.40;86.60;;;;;;6184751;23;20392;-74
2022/06/27 02:16:50;;;;;;;2.63;2.33;;;23.40;86.70;;;;;;6184310;23;20372;-74
2022/06/27 02:19:18;;;;;;;3.00;2.80;;;23.40;86.70;;;;;;6158966;23;20802;-74
2022/06/27 02:21:45;;;;;;;3.03;2.73;;;23.40;86.80;;;;;;6159492;23;20407;-74
2022/06/27 02:24:12;;;;;;;2.90;2.60;;;23.30;86.70;;;;;;6134948;23;20392;-74
2022/06/27 02:26:40;;;;;;;2.50;2.30;;;23.40;86.90;;;;;;6185533;23;20399;-74
2022/06/27 02:29:06;;;;;;;2.80;2.60;;;23.30;86.70;;;;;;6159105;23;20392;-74
2022/06/27 02:31:33;;;;;;;3.00;2.80;;;23.30;86.70;;;;;;6183879;23;20859;-74
2022/06/27 02:33:59;;;;;;;2.67;2.47;;;23.30;86.70;;;;;;6185394;23;20368;-74
2022/06/27 02:36:35;;;;;;;4.53;2.77;;;23.30;86.70;;;;;;6184150;23;20404;-74
2022/06/27 02:39:04;;;;;;;3.00;2.70;;;23.30;86.70;;;;;;6158756;23;20439;-74
2022/06/27 02:41:33;;;;;;;2.80;2.60;;;23.30;86.70;;;;;;6134440;23;20436;-74
2022/06/27 02:44:02;;;;;;;3.07;2.43;;;23.30;86.90;;;;;;6183559;23;20376;-74
2022/06/27 02:46:29;;;;;;;3.30;3.00;;;23.30;86.90;;;;;;6184096;23;20824;-74
2022/06/27 02:48:59;;;;;;;3.73;3.00;;;23.30;87.00;;;;;;6158888;23;20757;-74
2022/06/27 02:51:28;;;;;;;3.27;2.97;;;23.30;87.10;;;;;;6159048;23;20923;-74
2022/06/27 02:54:13;;;;;;;4.03;2.80;;;23.30;87.00;;;;;;6183845;23;20369;-74
2022/06/27 02:57:04;;;;;;;3.90;3.20;;;23.30;87.90;;;;;;6183840;23;20384;-74
2022/06/27 02:59:35;;;;;;;4.30;3.70;;;23.30;87.30;;;;;;6183812;23;20428;-74
2022/06/27 03:02:02;;;;;;;6.43;3.40;;;23.20;87.20;;;;;;6159007;23;20387;-74
2022/06/27 03:04:50;;;;;;;5.20;3.57;;;23.20;87.20;;;;;;6183940;23;20426;-74
2022/06/27 03:07:16;;;;;;;7.17;4.50;;;23.20;87.20;;;;;;6158939;23;20368;-74
2022/06/27 03:09:46;;;;;;;5.03;3.87;;;23.20;87.30;;;;;;6134742;23;20467;-74
2022/06/27 03:12:14;;;;;;;7.17;3.80;;;23.20;87.20;;;;;;6183869;23;20715;-74
2022/06/27 03:14:40;;;;;;;6.67;3.63;;;23.20;87.30;;;;;;6185175;23;20365;-74
2022/06/27 03:17:08;;;;;;;6.53;4.40;;;23.20;87.40;;;;;;6158591;23;20396;-74
2022/06/27 03:19:57;;;;;;;10.00;5.77;;;23.20;87.40;;;;;;6183532;23;20463;-74
2022/06/27 03:22:35;;;;;;;9.17;5.47;;;23.20;87.50;;;;;;6158781;23;20454;-74
2022/06/27 03:25:01;;;;;;;9.03;6.10;;;23.20;87.60;;;;;;6158856;23;20437;-74
2022/06/27 03:27:29;;;;;;;10.13;5.70;;;23.20;87.70;;;;;;6134461;23;20423;-74
2022/06/27 03:29:55;;;;;;;9.73;5.23;;;23.20;87.70;;;;;;6183550;23;20380;-73
2022/06/27 03:32:23;;;;;;;12.17;6.17;;;23.20;87.90;;;;;;6183384;23;20392;-76
2022/06/27 03:34:58;;;;;;;11.80;6.00;;;23.20;88.00;;;;;;6183438;23;20486;-77
2022/06/27 03:37:24;;;;;;;11.10;6.63;;;23.20;88.00;;;;;;6158661;23;20499;-72
2022/06/27 03:39:50;;;;;;;11.60;6.20;;;23.20;88.00;;;;;;6158655;23;20460;-74
2022/06/27 03:42:19;;;;;;;11.73;5.80;;;23.20;88.00;;;;;;6184038;23;20423;-74
2022/06/27 03:44:45;;;;;;;12.27;5.77;;;23.20;88.00;;;;;;6183785;23;20368;-74
2022/06/27 03:47:11;;;;;;;8.10;5.00;;;23.10;87.80;;;;;;6133930;23;20407;-73
2022/06/27 03:50:03;;;;;;;9.80;5.30;;;23.10;87.90;;;;;;6156400;23;20483;-73
2022/06/27 03:52:34;;;;;;;11.30;6.20;;;23.10;87.90;;;;;;6158410;23;20422;-72
2022/06/27 03:55:00;;;;;;;8.53;4.80;;;23.10;87.80;;;;;;6134138;23;20472;-72
2022/06/27 03:57:29;;;;;;;8.87;5.30;;;23.10;87.90;;;;;;6158335;23;20525;-73
2022/06/27 03:59:55;;;;;;;10.70;5.70;;;23.10;88.00;;;;;;6157994;23;20424;-73
2022/06/27 04:02:22;;;;;;;8.13;5.40;;;23.10;88.00;;;;;;6159339;23;20412;-74
2022/06/27 04:05:20;;;;;;;8.47;4.70;;;23.10;88.10;;;;;;6150797;23;20859;-73
2022/06/27 04:07:46;;;;;;;5.93;5.07;;;23.10;88.10;;;;;;6134459;23;20416;-73
2022/06/27 04:10:15;;;;;;;7.73;4.80;;;23.10;88.20;;;;;;6183513;23;20368;-74
2022/06/27 04:12:41;;;;;;;7.80;3.83;;;23.10;88.40;;;;;;6183524;23;20368;-73
2022/06/27 04:15:26;;;;;;;6.70;4.60;;;23.00;88.20;;;;;;6186849;23;20415;-75
2022/06/27 04:18:18;;;;;;;7.50;4.73;;;23.10;88.30;;;;;;6160261;23;20418;-74
2022/06/27 04:21:13;;;;;;;5.27;4.10;;;23.10;88.20;;;;;;6156058;23;20445;-76
2022/06/27 04:23:54;;;;;;;6.70;4.60;;;23.10;88.40;;;;;;6137290;23;20390;-77
2022/06/27 04:26:33;;;;;;;6.40;4.10;;;23.00;88.40;;;;;;6137241;23;20396;-76
2022/06/27 04:28:59;;;;;;;6.47;4.50;;;23.00;88.50;;;;;;6159165;23;20399;-76
2022/06/27 04:31:26;;;;;;;7.70;4.40;;;23.00;88.60;;;;;;6208910;23;20404;-76
2022/06/27 04:33:53;;;;;;;6.43;4.23;;;23.00;88.70;;;;;;6183824;23;20471;-76
2022/06/27 04:36:19;;;;;;;4.30;3.87;;;23.00;88.70;;;;;;6183867;23;20832;-77
2022/06/27 04:38:46;;;;;;;7.80;4.60;;;23.00;88.80;;;;;;6159037;23;20407;-76
2022/06/27 04:41:33;;;;;;;6.90;4.60;;;23.00;88.80;;;;;;6162011;23;20442;-76
2022/06/27 04:43:59;;;;;;;5.47;3.87;;;23.00;88.90;;;;;;6158385;23;20389;-75
2022/06/27 04:46:27;;;;;;;8.50;3.60;;;23.00;88.70;;;;;;6181198;23;20383;-76
2022/06/27 04:49:15;;;;;;;6.53;3.63;;;23.00;88.60;;;;;;6136708;23;20408;-76
2022/06/27 04:51:43;;;;;;;5.47;3.93;;;23.00;88.70;;;;;;6158579;23;20484;-76
2022/06/27 04:54:11;;;;;;;6.30;3.60;;;23.00;88.80;;;;;;6158716;23;20372;-75
2022/06/27 04:56:42;;;;;;;6.70;3.43;;;23.00;89.00;;;;;;6183237;23;20380;-76
2022/06/27 04:59:13;;;;;;;4.03;3.60;;;23.00;89.30;;;;;;6156986;23;20462;-75
2022/06/27 05:01:42;;;;;;;4.70;3.80;;;23.00;89.50;;;;;;6159123;23;20382;-76
2022/06/27 05:04:14;;;;;;;6.33;4.13;;;22.90;89.30;;;;;;6159228;23;20435;-75
2022/06/27 05:06:44;;;;;;;4.47;3.60;;;22.90;89.20;;;;;;6158871;23;20367;-75
2022/06/27 05:09:10;;;;;;;4.90;3.83;;;22.90;89.20;;;;;;6157876;23;20458;-75
2022/06/27 05:11:37;;;;;;;6.03;3.77;;;22.90;88.90;;;;;;6182816;23;20364;-76
2022/06/27 05:14:03;;;;;;;4.20;3.33;;;22.90;88.80;;;;;;6133175;23;20917;-75
2022/06/27 05:17:04;;;;;;;4.40;3.60;;;22.90;88.80;;;;;;6171923;23;20394;-76
2022/06/27 05:19:32;;;;;;;5.20;3.93;;;22.90;88.80;;;;;;6135196;23;20899;-75
2022/06/27 05:21:59;;;;;;;4.00;3.47;;;22.90;88.80;;;;;;6184254;23;20844;-76
2022/06/27 05:24:28;;;;;;;6.07;4.03;;;22.90;88.80;;;;;;6136021;23;20380;-76
2022/06/27 05:26:55;;;;;;;4.57;3.33;;;22.90;88.70;;;;;;6160036;23;20388;-76
2022/06/27 05:29:21;;;;;;;3.93;3.50;;;22.90;88.80;;;;;;6184434;23;20396;-76
2022/06/27 05:31:48;;;;;;;5.80;4.13;;;22.90;89.00;;;;;;6160139;23;20368;-76
2022/06/27 05:34:15;;;;;;;3.53;3.23;;;22.90;89.00;;;;;;6159909;23;20372;-76
2022/06/27 05:36:43;;;;;;;4.30;3.77;;;22.90;88.80;;;;;;6159876;23;20396;-76
2022/06/27 05:39:10;;;;;;;4.97;3.67;;;22.90;88.80;;;;;;6184406;23;20941;-76
2022/06/27 05:41:36;;;;;;;3.90;3.30;;;22.90;88.90;;;;;;6184677;23;20412;-75
2022/06/27 05:44:06;;;;;;;3.70;3.40;;;22.90;89.00;;;;;;6160769;23;20356;-76
2022/06/27 05:46:37;;;;;;;5.70;4.07;;;22.90;89.10;;;;;;6160860;23;20476;-76
2022/06/27 05:49:24;;;;;;;3.47;3.17;;;22.80;89.10;;;;;;6160621;23;20408;-74
2022/06/27 05:51:55;;;;;;;3.27;2.97;;;22.80;89.10;;;;;;6184198;23;20391;-76
2022/06/27 05:54:24;;;;;;;3.60;3.30;;;22.80;89.20;;;;;;6158927;23;20384;-76
2022/06/27 05:56:50;;;;;;;3.73;3.43;;;22.80;89.30;;;;;;6184579;23;20419;-76
2022/06/27 05:59:17;;;;;;;4.47;4.07;;;22.80;89.60;;;;;;6184266;23;20717;-76
2022/06/27 06:01:45;;;;;;;3.80;3.27;;;22.80;89.80;;;;;;6184397;23;20368;-76
2022/06/27 06:04:13;;;;;;;3.90;3.53;;;22.80;89.50;;;;;;6135208;23;20420;-76
2022/06/27 06:06:40;;;;;;;3.93;3.47;;;22.80;89.40;;;;;;6158534;23;20394;-76
2022/06/27 06:09:06;;;;;;;3.80;3.40;;;22.80;89.50;;;;;;6159321;23;20414;-76
2022/06/27 06:11:35;;;;;;;4.50;3.90;;;22.80;89.50;;;;;;6159532;23;20903;-76
2022/06/27 06:14:04;;;;;;;4.17;3.50;;;22.80;89.70;;;;;;6159250;23;20724;-76
2022/06/27 06:16:33;;;;;;;3.37;3.07;;;22.80;89.90;;;;;;6184353;23;20859;-76
2022/06/27 06:19:02;;;;;;;4.00;3.70;;;22.80;89.90;;;;;;6134780;23;20416;-76
2022/06/27 06:21:31;;;;;;;3.73;3.30;;;22.80;89.70;;;;;;6184088;23;20412;-76
2022/06/27 06:23:57;;;;;;;4.53;3.47;;;22.80;89.80;;;;;;6159417;23;20416;-76
2022/06/27 06:26:26;;;;;;;4.30;3.57;;;22.80;89.70;;;;;;6184132;23;20414;-76
2022/06/27 06:28:59;;;;;;;5.10;3.50;;;22.80;89.60;;;;;;6134646;23;20450;-76
2022/06/27 06:31:27;;;;;;;4.37;3.33;;;22.80;89.70;;;;;;6184307;23;20711;-76
2022/06/27 06:33:59;;;;;;;4.70;3.60;;;22.80;89.70;;;;;;6159383;23;20403;-76
2022/06/27 06:36:26;;;;;;;3.27;2.97;;;22.80;89.70;;;;;;6183320;23;20391;-76
2022/06/27 06:38:53;;;;;;;5.90;3.57;;;22.80;89.80;;;;;;6134854;23;20412;-76
2022/06/27 06:41:22;;;;;;;4.03;3.70;;;22.70;89.80;;;;;;6183973;23;20411;-76
2022/06/27 06:43:48;;;;;;;3.60;3.30;;;22.80;89.80;;;;;;6134852;23;20387;-76
2022/06/27 06:46:46;;;;;;;3.87;3.57;;;22.70;89.70;;;;;;6105014;23;20525;-76
2022/06/27 06:49:21;;;;;;;4.30;3.90;;;22.80;89.90;;;;;;6160276;23;20379;-76
2022/06/27 06:51:48;;;;;;;4.90;3.60;;;22.70;89.80;;;;;;6134325;23;20380;-76
2022/06/27 06:54:20;;;;;;;4.10;3.70;;;22.70;89.80;;;;;;6183850;23;20375;-74
2022/06/27 06:56:51;;;;;;;4.27;3.87;;;22.70;89.80;;;;;;6185123;23;20363;-75
2022/06/27 06:59:17;;;;;;;3.87;3.57;;;22.70;89.80;;;;;;6182562;23;20415;-77
2022/06/27 07:01:47;;;;;;;3.70;3.40;;;22.70;89.90;;;;;;6184163;23;20820;-76
2022/06/27 07:04:16;;;;;;;3.40;3.10;;;22.70;89.90;;;;;;6184266;23;20388;-76
2022/06/27 07:06:44;;;;;;;3.50;3.20;;;22.70;89.90;;;;;;6182994;23;20368;-75
2022/06/27 07:09:11;;;;;;;6.00;4.00;;;22.70;90.00;;;;;;6133378;23;20436;-75
2022/06/27 07:11:39;;;;;;;3.60;3.30;;;22.70;90.00;;;;;;6184028;23;20364;-75
2022/06/27 07:14:09;;;;;;;4.13;3.83;;;22.70;90.00;;;;;;6182886;23;20426;-75
2022/06/27 07:16:38;;;;;;;4.13;3.77;;;22.70;90.00;;;;;;6157577;23;20412;-75
2022/06/27 07:19:08;;;;;;;3.40;3.10;;;22.70;90.00;;;;;;6183952;23;20408;-75
2022/06/27 07:21:39;;;;;;;5.10;2.90;;;22.70;90.00;;;;;;6184314;23;20419;-75
2022/06/27 07:24:09;;;;;;;3.60;3.30;;;22.70;90.00;;;;;;6182515;23;20756;-75
2022/06/27 07:26:37;;;;;;;4.13;3.73;;;22.70;90.00;;;;;;6184313;23;20368;-75
2022/06/27 07:29:05;;;;;;;4.10;3.17;;;22.70;90.00;;;;;;6182398;23;20454;-76
2022/06/27 07:31:33;;;;;;;3.73;3.43;;;22.70;90.00;;;;;;6183985;23;20880;-75
2022/06/27 07:34:02;;;;;;;4.00;3.60;;;22.70;90.10;;;;;;6157348;23;20526;-75
2022/06/27 07:36:32;;;;;;;3.53;3.23;;;22.70;90.10;;;;;;6182623;23;20467;-75
2022/06/27 07:39:03;;;;;;;3.53;3.20;;;22.70;90.00;;;;;;6182281;23;20757;-75
2022/06/27 07:41:32;;;;;;;3.37;3.07;;;22.70;90.00;;;;;;6182461;23;20412;-76
2022/06/27 07:44:03;;;;;;;3.80;3.50;;;22.70;90.00;;;;;;6181964;23;20844;-76
2022/06/27 07:46:35;;;;;;;3.93;3.60;;;22.70;90.00;;;;;;6158298;23;20408;-75
2022/06/27 07:49:01;;;;;;;4.23;3.70;;;22.70;90.00;;;;;;6206917;23;20521;-75
2022/06/27 07:51:30;;;;;;;5.27;4.13;;;22.70;90.10;;;;;;6158001;23;20392;-75
2022/06/27 07:53:58;;;;;;;3.20;3.00;;;22.70;90.10;;;;;;6158201;23;20364;-74
2022/06/27 07:56:27;;;;;;;4.17;3.77;;;22.70;90.10;;;;;;6184491;23;20376;-75
2022/06/27 07:58:55;;;;;;;3.43;3.13;;;22.70;90.00;;;;;;6207823;23;20428;-75
2022/06/27 08:01:22;;;;;;;3.70;3.40;;;22.70;90.00;;;;;;6182250;23;20423;-76
2022/06/27 08:03:51;;;;;;;3.70;3.40;;;22.60;90.00;;;;;;6182608;23;20364;-75
2022/06/27 08:06:20;;;;;;;4.13;3.83;;;22.70;90.00;;;;;;6180076;23;20447;-66
2022/06/27 08:08:52;;;;;;;3.60;3.30;;;22.70;90.00;;;;;;6181267;23;20403;-66
2022/06/27 08:11:23;;;;;;;3.70;3.40;;;22.70;90.00;;;;;;6183607;23;20451;-66
2022/06/27 08:13:58;;;;;;;3.30;3.10;;;22.70;90.00;;;;;;6183779;23;20352;-66
2022/06/27 08:16:28;;;;;;;4.07;3.63;;;22.70;90.00;;;;;;6158591;23;20371;-67
2022/06/27 08:18:59;;;;;;;4.20;3.80;;;22.70;90.00;;;;;;6179726;23;20744;-67
2022/06/27 08:21:27;;;;;;;4.67;3.60;;;22.70;90.00;;;;;;6182569;23;20442;-66
2022/06/27 08:23:56;;;;;;;4.13;3.73;;;22.70;90.00;;;;;;6183512;23;20415;-67
2022/06/27 08:26:23;;;;;;;4.53;3.60;;;22.70;89.90;;;;;;6182216;23;20366;-66
2022/06/27 08:28:50;;;;;;;4.87;3.67;;;22.70;90.00;;;;;;6182052;23;20471;-66
2022/06/27 08:31:17;;;;;;;3.43;3.10;;;22.70;90.00;;;;;;6182093;23;20474;-66
2022/06/27 08:33:49;;;;;;;4.27;3.70;;;22.70;90.00;;;;;;6183250;23;20372;-67
2022/06/27 08:36:19;;;;;;;3.67;3.37;;;22.70;90.00;;;;;;6182602;23;20380;-67
2022/06/27 08:38:50;;;;;;;4.33;3.90;;;22.70;90.00;;;;;;6206877;23;20756;-67
2022/06/27 08:41:24;;;;;;;3.70;3.40;;;22.70;90.00;;;;;;6184393;23;20874;-67
2022/06/27 08:44:01;;;;;;;4.67;3.70;;;22.70;90.00;;;;;;6181858;23;20406;-67
2022/06/27 08:46:31;;;;;;;3.60;3.40;;;22.70;90.40;;;;;;6183674;23;20746;-67
2022/06/27 08:49:02;;;;;;;3.83;3.53;;;22.70;90.00;;;;;;6157263;23;20399;-66
2022/06/27 08:51:33;;;;;;;3.90;3.60;;;22.70;90.10;;;;;;6183882;23;20411;-67
2022/06/27 08:54:00;;;;;;;4.33;3.80;;;22.70;90.10;;;;;;6185213;23;20692;-66
2022/06/27 08:56:34;;;;;;;3.87;3.57;;;22.70;90.20;;;;;;6208935;23;20843;-66
2022/06/27 08:59:05;;;;;;;3.77;3.47;;;22.70;90.20;;;;;;6183735;23;20404;-66
2022/06/27 09:01:32;;;;;;;4.03;3.57;;;22.70;90.20;;;;;;6185604;23;20432;-67
2022/06/27 09:04:00;;;;;;;4.07;3.63;;;22.70;90.20;;;;;;6185008;23;20388;-67
2022/06/27 09:06:33;;;;;;;6.40;3.80;;;22.70;90.30;;;;;;6184409;23;20444;-67
2022/06/27 09:09:09;;;;;;;4.07;3.50;;;22.70;90.40;;;;;;6184819;23;20434;-67
2022/06/27 09:11:44;;;;;;;5.80;3.73;;;22.70;90.50;;;;;;6185597;23;20375;-67
2022/06/27 09:14:54;;;;;;;4.30;3.90;;;22.60;90.30;;;;;;6185189;23;20477;-67
2022/06/27 09:17:26;;;;;;;4.63;3.90;;;22.70;90.60;;;;;;6069172;23;20393;-67
2022/06/27 09:19:57;;;;;;;5.40;4.50;;;22.70;90.60;;;;;;6069130;23;20489;-67
2022/06/27 09:22:29;;;;;;;4.53;3.50;;;22.60;90.60;;;;;;6094118;23;20770;-67
2022/06/27 09:25:04;;;;;;;4.57;3.93;;;22.60;90.60;;;;;;6069587;23;20447;-67
2022/06/27 09:27:55;;;;;;;4.00;3.70;;;22.70;90.70;;;;;;6046810;23;20411;-67
2022/06/27 09:30:24;;;;;;;4.00;3.70;;;22.60;90.70;;;;;;6069694;23;20375;-67
2022/06/27 09:33:00;;;;;;;4.37;3.97;;;22.70;90.80;;;;;;6070005;23;20398;-66
2022/06/27 09:35:38;;;;;;;4.70;4.20;;;22.70;90.80;;;;;;6093884;23;20410;-67
2022/06/27 09:38:10;;;;;;;4.73;4.40;;;22.70;90.80;;;;;;6070160;23;20409;-66
2022/06/27 09:40:40;;;;;;;4.57;4.17;;;22.70;90.80;;;;;;6022632;23;20418;-66
2022/06/27 09:43:13;;;;;;;4.50;4.10;;;22.70;90.90;;;;;;6070558;23;20714;-66
2022/06/27 09:45:43;;;;;;;4.23;3.93;;;22.70;90.80;;;;;;6069812;23;20395;-67
2022/06/27 09:48:10;;;;;;;4.40;3.87;;;22.60;90.80;;;;;;6143314;23;20407;-66
2022/06/27 09:50:41;;;;;;;4.77;4.30;;;22.60;90.70;;;;;;6183138;23;20401;-66
2022/06/27 09:53:16;;;;;;;4.80;4.40;;;22.70;90.80;;;;;;6183987;23;20768;-66
2022/06/27 09:55:47;;;;;;;4.10;3.70;;;22.70;90.70;;;;;;6183834;23;20377;-67
2022/06/27 09:58:16;;;;;;;4.50;4.20;;;22.70;90.80;;;;;;6183550;23;20403;-66
2022/06/27 10:00:52;;;;;;;5.53;4.47;;;22.60;90.50;;;;;;6136921;23;20746;-66
2022/06/27 10:03:24;;;;;;;4.00;3.70;;;22.70;90.50;;;;;;6184115;23;20368;-66
2022/06/27 10:05:55;;;;;;;4.40;4.00;;;22.60;90.30;;;;;;6183390;23;20489;-66
2022/06/27 10:08:21;;;;;;;4.30;3.90;;;22.70;90.30;;;;;;6183347;23;20515;-66
2022/06/27 10:11:04;;;;;;;6.53;4.97;;;22.70;90.30;;;;;;6183256;23;20399;-66
2022/06/27 10:13:34;;;;;;;4.73;4.20;;;22.70;90.50;;;;;;6208278;23;20546;-66
2022/06/27 10:16:27;;;;;;;4.90;4.23;;;22.70;90.50;;;;;;6184821;23;20834;-66
2022/06/27 10:19:00;;;;;;;5.40;4.90;;;22.70;90.50;;;;;;6178218;23;20757;-66
2022/06/27 10:21:33;;;;;;;5.50;5.00;;;22.70;90.60;;;;;;6158493;23;20899;-66
2022/06/27 10:24:32;;;;;;;5.20;4.70;;;22.70;90.40;;;;;;6184234;23;20410;-66
2022/06/27 10:27:02;;;;;;;5.60;5.10;;;22.80;90.40;;;;;;6184461;23;20365;-66
2022/06/27 10:29:33;;;;;;;7.77;4.90;;;22.80;90.40;;;;;;6182977;23;20396;-66
2022/06/27 10:32:05;;;;;;;8.27;5.50;;;22.80;90.40;;;;;;6183031;23;20435;-67
2022/06/27 10:34:43;;;;;;;6.73;5.50;;;22.70;90.40;;;;;;6158805;23;20439;-66
2022/06/27 10:37:49;;;;;;;6.00;5.03;;;22.80;90.50;;;;;;6179990;23;20413;-67
2022/06/27 10:40:23;;;;;;;5.40;4.90;;;22.80;90.50;;;;;;6092935;23;20438;-66
2022/06/27 10:42:55;;;;;;;5.90;5.30;;;22.80;90.50;;;;;;6092687;23;20834;-66
2022/06/27 10:45:29;;;;;;;6.40;5.80;;;22.80;90.40;;;;;;6092832;23;20453;-67
2022/06/27 10:48:02;;;;;;;5.30;4.80;;;22.80;90.40;;;;;;6092635;23;20463;-66
2022/06/27 10:50:41;;;;;;;5.90;5.30;;;22.80;90.40;;;;;;6092142;23;20407;-67
2022/06/27 10:53:18;;;;;;;5.97;5.47;;;22.80;90.30;;;;;;6069338;23;20414;-66
2022/06/27 10:55:44;;;;;;;6.23;5.60;;;22.80;90.40;;;;;;6068585;23;20417;-66
2022/06/27 10:58:27;;;;;;;6.20;5.60;;;22.80;90.30;;;;;;6092132;23;20421;-66
2022/06/27 11:01:11;;;;;;;7.67;6.00;;;22.80;90.40;;;;;;6068694;23;20438;-67
2022/06/27 11:03:39;;;;;;;6.07;5.57;;;22.80;90.40;;;;;;6068575;23;20419;-67
2022/06/27 11:06:13;;;;;;;5.70;4.67;;;22.80;90.40;;;;;;6092607;23;20424;-67
2022/06/27 11:08:54;;;;;;;6.13;4.80;;;22.80;90.30;;;;;;6092728;23;20438;-68
2022/06/27 11:11:27;;;;;;;5.73;5.17;;;22.80;90.30;;;;;;6068608;23;20788;-67
2022/06/27 11:14:00;;;;;;;5.60;5.10;;;22.80;90.20;;;;;;6068325;23;20371;-67
2022/06/27 11:16:33;;;;;;;5.63;5.20;;;22.80;90.20;;;;;;6082859;23;20499;-67
2022/06/27 11:20:04;;;;;;;5.40;4.90;;;22.80;90.30;;;;;;6184061;23;20414;-67
2022/06/27 11:21:51;;;;;;;5.97;5.17;;;22.80;90.20;;;;;;6183878;23;20384;-67
2022/06/27 11:24:19;;;;;;;6.23;5.07;;;22.80;90.30;;;;;;6184145;23;20770;-67
2022/06/27 11:26:54;;;;;;;6.40;5.80;;;22.80;90.30;;;;;;6157477;23;20462;-67
2022/06/27 11:32:12;;;;;;;6.20;5.60;;;22.80;90.40;;;;;;6182248;23;20414;-67
2022/06/27 11:34:40;;;;;;;5.67;5.07;;;22.80;90.50;;;;;;6207628;23;20414;-67
2022/06/27 11:37:10;;;;;;;5.93;5.30;;;22.80;90.60;;;;;;6133230;23;20364;-67
2022/06/27 11:39:36;;;;;;;5.63;5.20;;;22.80;90.60;;;;;;6183400;23;20453;-67
2022/06/27 11:42:10;;;;;;;5.87;5.37;;;22.80;90.50;;;;;;6184086;23;20382;-67
2022/06/27 11:44:58;;;;;;;6.50;5.37;;;22.80;90.40;;;;;;6184570;23;20807;-67
2022/06/27 11:47:27;;;;;;;5.70;5.27;;;22.80;90.30;;;;;;6169897;23;20388;-67
2022/06/27 11:50:07;;;;;;;5.80;5.30;;;22.80;90.30;;;;;;6133229;23;20391;-67
2022/06/27 11:52:37;;;;;;;5.97;5.37;;;22.80;90.30;;;;;;6183897;23;20429;-67
2022/06/27 11:55:08;;;;;;;6.97;5.80;;;22.90;90.40;;;;;;6182587;23;20461;-67
2022/06/27 11:57:34;;;;;;;6.70;6.13;;;22.80;90.40;;;;;;6183807;23;20423;-67
2022/06/27 12:00:03;;;;;;;6.60;5.37;;;22.80;90.40;;;;;;6181955;23;20408;-67
2022/06/27 12:02:40;;;;;;;5.33;4.93;;;22.90;90.40;;;;;;6183463;23;20408;-67
2022/06/27 12:05:19;;;;;;;8.80;5.63;;;22.80;90.30;;;;;;6207466;23;20652;-67
2022/06/27 12:08:01;;;;;;;6.27;5.70;;;22.90;90.40;;;;;;6157971;23;20435;-67
2022/06/27 12:10:34;;;;;;;6.60;6.10;;;22.90;90.40;;;;;;6182280;23;20380;-67
2022/06/27 12:13:11;;;;;;;6.83;6.30;;;22.90;90.40;;;;;;6183808;23;20367;-67
2022/06/27 12:15:41;;;;;;;6.80;6.20;;;22.90;90.40;;;;;;6182120;23;20352;-67
2022/06/27 12:18:12;;;;;;;7.23;6.53;;;22.90;90.30;;;;;;6182248;23;20407;-67
2022/06/27 12:20:42;;;;;;;6.50;5.90;;;22.90;90.30;;;;;;6181990;23;20412;-67
2022/06/27 12:23:11;;;;;;;7.87;7.07;;;22.90;90.30;;;;;;6157380;23;20404;-67
2022/06/27 12:25:37;;;;;;;9.43;6.20;;;22.90;90.20;;;;;;6183399;23;20403;-67
2022/06/27 12:28:09;;;;;;;6.97;6.37;;;22.90;90.30;;;;;;6132495;23;20434;-67
2022/06/27 12:30:35;;;;;;;6.87;6.27;;;22.90;90.40;;;;;;6182291;23;20364;-67
2022/06/27 12:33:05;;;;;;;6.90;6.20;;;23.00;90.30;;;;;;6182179;23;20974;-67
2022/06/27 12:35:34;;;;;;;7.30;6.60;;;23.00;90.30;;;;;;6183320;23;20392;-67
2022/06/27 12:38:04;;;;;;;9.20;8.30;;;22.90;90.20;;;;;;6156153;23;20435;-67
2022/06/27 12:40:33;;;;;;;7.40;6.63;;;22.90;90.20;;;;;;6182043;23;20463;-67
2022/06/27 12:42:59;;;;;;;8.60;7.00;;;22.90;90.20;;;;;;6183722;23;20622;-67
2022/06/27 12:45:25;;;;;;;8.70;7.57;;;23.00;90.20;;;;;;6181979;23;20364;-67
2022/06/27 12:47:51;;;;;;;8.50;7.70;;;23.00;90.20;;;;;;6206617;23;20491;-67
2022/06/27 12:50:18;;;;;;;7.20;6.60;;;23.00;90.10;;;;;;6156557;23;20396;-67
2022/06/27 12:52:44;;;;;;;8.87;8.00;;;23.00;90.10;;;;;;6157268;23;20407;-67
2022/06/27 12:55:11;;;;;;;8.13;7.33;;;23.00;90.00;;;;;;6206808;23;20503;-67
2022/06/27 12:57:39;;;;;;;7.70;7.00;;;23.00;90.00;;;;;;6181969;23;20407;-67
2022/06/27 13:00:08;;;;;;;7.97;7.30;;;23.00;89.90;;;;;;6181902;23;20416;-67
2022/06/27 13:02:34;;;;;;;7.20;6.60;;;23.00;89.70;;;;;;6182288;23;20438;-67
2022/06/27 13:05:00;;;;;;;7.40;6.70;;;23.00;89.60;;;;;;6181827;23;20388;-67
2022/06/27 13:07:28;;;;;;;8.10;7.40;;;23.00;89.60;;;;;;6181699;23;20408;-67